Time;durP1;ratioP1;P1;durP2;ratioP2;P2;SDS_P1;SDS_P2;PMS_P1;PMS_P2;Temp;Humidity;BMP_temperature;BMP_pressure;BME280_temperature;BME280_humidity;BME280_pressure;Samples;Min_cycle;Max_cycle;Signal;HPM_P1;HPM_P2
2022/11/05 00:10:43;;;;;;;20.42;14.55;;;;;;;;;;5043527;28;20075;-72
2022/11/05 00:18:40;;;;;;;20.75;16.25;;;;;;;;;;5055866;28;20095;-72
2022/11/05 00:25:12;;;;;;;28.55;19.90;;;;;;;;;;5055868;28;20036;-72
2022/11/05 00:26:52;;;;;;;30.47;20.50;;;;;;;;;;5046558;28;20080;-72
2022/11/05 00:29:18;;;;;;;49.35;37.42;;;;;;;;;;5044207;28;20275;-73
2022/11/05 00:31:44;;;;;;;33.30;22.65;;;;;;;;;;5035761;28;20037;-74
2022/11/05 00:34:10;;;;;;;34.70;24.73;;;;;;;;;;5041410;28;20021;-71
2022/11/05 00:36:36;;;;;;;32.97;21.98;;;;;;;;;;5055248;28;20088;-72
2022/11/05 00:39:02;;;;;;;30.50;21.55;;;;;;;;;;5054871;28;20021;-71
2022/11/05 00:41:28;;;;;;;32.05;23.08;;;;;;;;;;5055223;28;20479;-70
2022/11/05 00:46:38;;;;;;;31.73;23.42;;;;;;;;;;5055570;28;20044;-74
2022/11/05 00:54:45;;;;;;;29.30;21.98;;;;;;;;;;4974449;28;20097;-74
2022/11/05 00:57:11;;;;;;;32.63;22.23;;;;;;;;;;4972658;28;20062;-71
2022/11/05 00:59:37;;;;;;;31.83;24.00;;;;;;;;;;4973324;28;20034;-73
2022/11/05 01:02:03;;;;;;;31.73;23.23;;;;;;;;;;4974096;28;20030;-73
2022/11/05 01:04:29;;;;;;;30.52;22.95;;;;;;;;;;4974349;28;20054;-74
2022/11/05 01:06:55;;;;;;;28.30;22.73;;;;;;;;;;4973822;28;20023;-71
2022/11/05 01:09:21;;;;;;;33.63;22.65;;;;;;;;;;4974087;28;20043;-73
2022/11/05 01:11:47;;;;;;;27.35;22.00;;;;;;;;;;4973780;28;20030;-72
2022/11/05 01:14:17;;;;;;;31.92;23.88;;;;;;;;;;4974080;28;20034;-73
2022/11/05 01:16:46;;;;;;;34.80;24.58;;;;;;;;;;4973773;28;20043;-73
2022/11/05 01:19:12;;;;;;;35.75;25.77;;;;;;;;;;4960399;28;20185;-71
2022/11/05 01:21:38;;;;;;;35.05;27.20;;;;;;;;;;4973793;28;20429;-73
2022/11/05 01:24:04;;;;;;;35.95;26.88;;;;;;;;;;4973282;28;20030;-74
2022/11/05 01:26:31;;;;;;;31.23;24.35;;;;;;;;;;4981800;28;20022;-71
2022/11/05 01:29:01;;;;;;;64.10;46.95;;;;;;;;;;5037363;28;20087;-70
2022/11/05 01:31:27;;;;;;;38.22;29.25;;;;;;;;;;5053052;28;20170;-73
2022/11/05 01:33:54;;;;;;;26.92;20.30;;;;;;;;;;5044148;28;20035;-73
2022/11/05 01:36:20;;;;;;;32.72;22.90;;;;;;;;;;5050345;28;20025;-70
2022/11/05 01:38:46;;;;;;;28.05;20.02;;;;;;;;;;5047509;28;20036;-70
2022/11/05 01:41:12;;;;;;;27.42;19.98;;;;;;;;;;5053202;28;20029;-73
2022/11/05 01:43:55;;;;;;;48.58;31.80;;;;;;;;;;5052548;28;20095;-74
2022/11/05 01:46:41;;;;;;;64.15;41.70;;;;;;;;;;5054076;28;20032;-70
2022/11/05 01:49:43;;;;;;;20.58;17.83;;;;;;;;;;5052041;28;20041;-71
2022/11/05 01:52:09;;;;;;;19.58;15.80;;;;;;;;;;4992775;28;20165;-70
2022/11/05 01:54:35;;;;;;;25.08;17.25;;;;;;;;;;4992451;28;20058;-71
2022/11/05 01:57:03;;;;;;;25.88;19.42;;;;;;;;;;4992841;28;20038;-73
2022/11/05 01:59:31;;;;;;;24.10;19.42;;;;;;;;;;4988379;28;20118;-74
2022/11/05 02:01:57;;;;;;;25.83;18.92;;;;;;;;;;4990857;28;20173;-73
2022/11/05 02:04:27;;;;;;;34.67;26.33;;;;;;;;;;4991424;28;20073;-73
2022/11/05 02:06:53;;;;;;;29.75;21.02;;;;;;;;;;4991379;28;20121;-70
2022/11/05 02:09:22;;;;;;;28.55;21.40;;;;;;;;;;4992421;28;20524;-73
2022/11/05 02:11:49;;;;;;;32.88;23.58;;;;;;;;;;4992334;28;20048;-73
2022/11/05 02:14:15;;;;;;;27.30;21.48;;;;;;;;;;4992339;28;20121;-73
2022/11/05 02:16:46;;;;;;;28.85;22.17;;;;;;;;;;4991982;28;20034;-71
2022/11/05 02:19:15;;;;;;;33.03;24.17;;;;;;;;;;4992392;28;20042;-73
2022/11/05 02:21:43;;;;;;;31.85;21.95;;;;;;;;;;4992122;28;20049;-70
2022/11/05 02:24:12;;;;;;;35.33;25.02;;;;;;;;;;4978689;28;20018;-71
2022/11/05 02:27:02;;;;;;;31.70;22.77;;;;;;;;;;5036725;28;20033;-74
2022/11/05 02:29:30;;;;;;;27.42;19.40;;;;;;;;;;4972389;28;20038;-73
2022/11/05 02:32:08;;;;;;;25.10;17.02;;;;;;;;;;4972474;28;20113;-71
2022/11/05 02:34:43;;;;;;;27.63;18.27;;;;;;;;;;4972441;28;20053;-69
2022/11/05 02:37:18;;;;;;;27.60;19.33;;;;;;;;;;4972181;28;20058;-71
2022/11/05 02:39:53;;;;;;;26.08;21.13;;;;;;;;;;4972491;28;20102;-72
2022/11/05 02:42:35;;;;;;;24.63;19.70;;;;;;;;;;4971332;28;20031;-73
2022/11/05 02:45:19;;;;;;;23.70;18.05;;;;;;;;;;4971926;28;20049;-73
2022/11/05 02:48:11;;;;;;;24.02;15.70;;;;;;;;;;4969198;28;20086;-71
2022/11/05 02:50:45;;;;;;;28.17;20.85;;;;;;;;;;4978739;28;20137;-70
2022/11/05 02:53:15;;;;;;;24.20;17.45;;;;;;;;;;4975098;28;20232;-72
2022/11/05 02:55:44;;;;;;;26.77;17.38;;;;;;;;;;4950476;28;20574;-71
2022/11/05 02:58:10;;;;;;;21.90;16.63;;;;;;;;;;4971139;28;20433;-72
2022/11/05 03:00:48;;;;;;;20.70;16.10;;;;;;;;;;4961174;28;20564;-70
2022/11/05 03:03:18;;;;;;;21.27;15.65;;;;;;;;;;4965174;28;20030;-70
2022/11/05 03:06:02;;;;;;;23.02;16.73;;;;;;;;;;4980194;28;20030;-72
2022/11/05 03:08:41;;;;;;;21.02;13.90;;;;;;;;;;5039591;28;20060;-71
2022/11/05 03:11:13;;;;;;;17.52;14.60;;;;;;;;;;5052608;28;20021;-70
2022/11/05 03:13:47;;;;;;;24.30;19.45;;;;;;;;;;5052458;28;20049;-70
2022/11/05 03:16:34;;;;;;;19.10;15.20;;;;;;;;;;5052116;28;20033;-71
2022/11/05 03:19:15;;;;;;;26.00;18.38;;;;;;;;;;5052452;28;20471;-70
2022/11/05 03:21:46;;;;;;;24.67;17.70;;;;;;;;;;5052319;28;20021;-71
2022/11/05 03:24:12;;;;;;;;;;;;;;;;;;5053128;28;20036;-70
2022/11/05 03:26:47;;;;;;;23.90;18.73;;;;;;;;;;5051669;28;20272;-71
2022/11/05 03:29:18;;;;;;;29.13;21.02;;;;;;;;;;5044372;28;20098;-70
2022/11/05 03:31:45;;;;;;;39.10;27.43;;;;;;;;;;5048801;28;20029;-70
2022/11/05 03:34:12;;;;;;;36.05;24.55;;;;;;;;;;5052258;28;20269;-72
2022/11/05 03:36:42;;;;;;;25.20;17.00;;;;;;;;;;5052138;28;20031;-72
2022/11/05 03:39:10;;;;;;;22.48;16.35;;;;;;;;;;5052304;28;20017;-70
2022/11/05 03:41:37;;;;;;;18.10;14.43;;;;;;;;;;5052300;28;20036;-73
2022/11/05 03:44:06;;;;;;;26.70;20.00;;;;;;;;;;5038042;28;20049;-72
2022/11/05 03:46:38;;;;;;;30.70;21.98;;;;;;;;;;5052453;28;20113;-75
2022/11/05 03:49:07;;;;;;;27.88;19.08;;;;;;;;;;5051934;28;20029;-72
2022/11/05 03:51:36;;;;;;;33.50;24.33;;;;;;;;;;5052460;28;20017;-71
2022/11/05 03:54:03;;;;;;;24.40;19.00;;;;;;;;;;5052306;28;20434;-71
2022/11/05 03:56:32;;;;;;;28.35;22.27;;;;;;;;;;5052027;28;20028;-69
2022/11/05 03:59:00;;;;;;;37.15;25.02;;;;;;;;;;5047056;28;20395;-73
2022/11/05 04:01:26;;;;;;;24.52;16.95;;;;;;;;;;5043310;28;20025;-72
2022/11/05 04:03:52;;;;;;;24.45;18.17;;;;;;;;;;5051596;28;20040;-71
2022/11/05 04:14:32;;;;;;;23.75;18.42;;;;;;;;;;5052079;28;20636;-73
2022/11/05 04:17:10;;;;;;;24.90;18.02;;;;;;;;;;5052108;28;20100;-71
2022/11/05 04:25:09;;;;;;;27.20;18.90;;;;;;;;;;5052153;28;20048;-70
2022/11/05 04:27:35;;;;;;;28.27;19.77;;;;;;;;;;5053518;28;20522;-73
2022/11/05 04:30:17;;;;;;;31.45;22.13;;;;;;;;;;5050010;28;20434;-72
2022/11/05 04:32:43;;;;;;;;;;;;;;;;;;5056086;28;20475;-71
2022/11/05 04:35:09;;;;;;;34.88;24.95;;;;;;;;;;5055352;28;19991;-71
2022/11/05 04:37:35;;;;;;;31.92;23.42;;;;;;;;;;5055551;28;20045;-71
2022/11/05 04:40:01;;;;;;;27.85;20.25;;;;;;;;;;5055429;28;20479;-70
2022/11/05 04:42:28;;;;;;;25.92;19.98;;;;;;;;;;5055365;28;20029;-70
2022/11/05 04:44:54;;;;;;;29.63;21.73;;;;;;;;;;5055138;28;20044;-72
2022/11/05 04:47:20;;;;;;;28.40;21.30;;;;;;;;;;5055356;28;20024;-72
2022/11/05 04:49:46;;;;;;;27.90;20.65;;;;;;;;;;5055178;28;20039;-73
2022/11/05 04:52:12;;;;;;;28.98;20.23;;;;;;;;;;5055083;28;20105;-73
2022/11/05 04:54:38;;;;;;;28.10;21.23;;;;;;;;;;5055030;28;20087;-74
2022/11/05 04:57:04;;;;;;;27.55;19.48;;;;;;;;;;5055378;28;20095;-75
2022/11/05 04:59:30;;;;;;;29.73;21.88;;;;;;;;;;5045581;28;20026;-73
2022/11/05 05:01:57;;;;;;;27.00;20.15;;;;;;;;;;5054275;28;20464;-73
2022/11/05 05:04:23;;;;;;;27.08;19.63;;;;;;;;;;5054679;28;20033;-70
2022/11/05 05:06:49;;;;;;;28.70;19.95;;;;;;;;;;5054921;28;20092;-73
2022/11/05 05:09:15;;;;;;;28.42;20.42;;;;;;;;;;5054822;28;20036;-72
2022/11/05 05:11:41;;;;;;;29.92;20.95;;;;;;;;;;5054822;28;20021;-71
2022/11/05 05:14:08;;;;;;;32.58;21.42;;;;;;;;;;5053612;28;20036;-73
2022/11/05 05:16:34;;;;;;;29.27;21.90;;;;;;;;;;5054625;28;20565;-72
2022/11/05 05:19:00;;;;;;;32.05;22.42;;;;;;;;;;5054524;28;20021;-72
2022/11/05 05:21:39;;;;;;;35.00;23.65;;;;;;;;;;5054519;28;20048;-72
2022/11/05 05:24:07;;;;;;;33.30;23.35;;;;;;;;;;5054305;28;20066;-73
2022/11/05 05:26:34;;;;;;;29.33;21.17;;;;;;;;;;5054516;28;20021;-72
2022/11/05 05:29:00;;;;;;;27.90;21.83;;;;;;;;;;5052974;28;20360;-72
2022/11/05 05:31:26;;;;;;;31.42;22.73;;;;;;;;;;5054860;28;20438;-73
2022/11/05 05:33:53;;;;;;;34.45;23.65;;;;;;;;;;5038778;28;20506;-73
2022/11/05 05:36:19;;;;;;;36.65;27.52;;;;;;;;;;5054139;28;20029;-72
2022/11/05 05:38:46;;;;;;;33.92;24.45;;;;;;;;;;5053436;28;20024;-71
2022/11/05 05:41:12;;;;;;;31.75;21.95;;;;;;;;;;5054353;28;20435;-72
2022/11/05 05:43:38;;;;;;;32.20;23.08;;;;;;;;;;5054064;28;20056;-70
2022/11/05 05:46:05;;;;;;;28.92;21.92;;;;;;;;;;5053987;28;20023;-70
2022/11/05 05:48:31;;;;;;;30.30;24.08;;;;;;;;;;5054198;28;20038;-73
2022/11/05 05:51:01;;;;;;;30.77;22.35;;;;;;;;;;5053883;28;20529;-70
2022/11/05 05:53:27;;;;;;;28.98;22.25;;;;;;;;;;5053933;28;20066;-69
2022/11/05 05:55:54;;;;;;;35.55;26.92;;;;;;;;;;5053994;28;20091;-72
2022/11/05 05:58:20;;;;;;;55.13;37.72;;;;;;;;;;5053909;28;20043;-73
2022/11/05 06:00:46;;;;;;;51.83;38.65;;;;;;;;;;5043407;28;20143;-72
2022/11/05 06:03:12;;;;;;;59.00;39.65;;;;;;;;;;5053933;28;20087;-73
2022/11/05 06:05:38;;;;;;;58.70;39.58;;;;;;;;;;5053674;28;20021;-69
2022/11/05 06:08:04;;;;;;;59.00;40.88;;;;;;;;;;5053711;28;20025;-71
2022/11/05 06:10:30;;;;;;;61.88;39.95;;;;;;;;;;5053461;28;20075;-73
2022/11/05 06:12:58;;;;;;;54.35;38.40;;;;;;;;;;5052005;28;20091;-69
2022/11/05 06:15:24;;;;;;;54.28;39.22;;;;;;;;;;5053504;28;20174;-68
2022/11/05 06:17:50;;;;;;;54.30;38.70;;;;;;;;;;5053848;28;20025;-69
2022/11/05 06:20:16;;;;;;;49.92;36.03;;;;;;;;;;5053082;28;20021;-69
2022/11/05 06:22:43;;;;;;;49.25;34.83;;;;;;;;;;5053389;28;20043;-69
2022/11/05 06:25:09;;;;;;;46.20;32.90;;;;;;;;;;5053315;28;20037;-69
2022/11/05 06:27:35;;;;;;;47.42;32.13;;;;;;;;;;5053506;28;20487;-73
2022/11/05 06:30:02;;;;;;;44.42;32.42;;;;;;;;;;5052150;28;20038;-73
2022/11/05 06:32:30;;;;;;;40.58;30.48;;;;;;;;;;5053299;28;20021;-71
2022/11/05 06:34:56;;;;;;;38.92;30.27;;;;;;;;;;5053119;28;20017;-70
2022/11/05 06:37:22;;;;;;;49.53;37.78;;;;;;;;;;5053111;28;20017;-70
2022/11/05 06:39:48;;;;;;;51.50;38.03;;;;;;;;;;5053173;28;20029;-73
2022/11/05 06:42:14;;;;;;;43.75;33.63;;;;;;;;;;5053014;28;20097;-72
2022/11/05 06:44:40;;;;;;;44.10;32.08;;;;;;;;;;5052674;28;20059;-71
2022/11/05 06:47:06;;;;;;;40.80;29.65;;;;;;;;;;5053178;28;20089;-72
2022/11/05 06:49:33;;;;;;;39.15;28.30;;;;;;;;;;5052735;28;20025;-71
2022/11/05 06:51:59;;;;;;;35.85;28.05;;;;;;;;;;5052840;28;20028;-73
2022/11/05 06:54:25;;;;;;;36.10;25.75;;;;;;;;;;5052607;28;20104;-71
2022/11/05 06:56:51;;;;;;;35.08;27.05;;;;;;;;;;5052930;28;20021;-70
2022/11/05 06:59:17;;;;;;;37.92;27.58;;;;;;;;;;5045533;28;20025;-73
2022/11/05 07:01:43;;;;;;;40.72;28.85;;;;;;;;;;5049236;28;20021;-73
2022/11/05 07:04:11;;;;;;;40.58;29.38;;;;;;;;;;5052819;28;20029;-73
2022/11/05 07:06:37;;;;;;;38.30;28.67;;;;;;;;;;5052483;28;20021;-72
2022/11/05 07:09:03;;;;;;;40.40;30.60;;;;;;;;;;5052465;28;20092;-73
2022/11/05 07:11:29;;;;;;;44.42;34.85;;;;;;;;;;5052461;28;20795;-70
2022/11/05 07:13:55;;;;;;;47.55;36.20;;;;;;;;;;5052410;28;20037;-71
2022/11/05 07:16:21;;;;;;;44.03;33.95;;;;;;;;;;5051263;28;20074;-70
2022/11/05 07:18:48;;;;;;;41.78;33.35;;;;;;;;;;5052562;28;20021;-69
2022/11/05 07:21:14;;;;;;;43.28;30.95;;;;;;;;;;5052473;28;20032;-68
2022/11/05 07:23:40;;;;;;;45.70;35.28;;;;;;;;;;5036139;28;20063;-68
2022/11/05 07:26:07;;;;;;;39.58;31.30;;;;;;;;;;5051700;28;20845;-72
2022/11/05 07:28:33;;;;;;;65.57;51.47;;;;;;;;;;5051295;28;20040;-70
2022/11/05 07:30:59;;;;;;;69.03;50.38;;;;;;;;;;5052490;28;20104;-70
2022/11/05 07:33:25;;;;;;;54.75;44.55;;;;;;;;;;5052525;28;20029;-68
2022/11/05 07:35:51;;;;;;;44.95;36.42;;;;;;;;;;5052046;28;20426;-68
2022/11/05 07:38:18;;;;;;;45.97;36.10;;;;;;;;;;5052683;28;20047;-68
2022/11/05 07:40:44;;;;;;;49.65;39.70;;;;;;;;;;5052366;28;20491;-73
2022/11/05 07:43:10;;;;;;;60.10;45.55;;;;;;;;;;5052153;28;20041;-75
2022/11/05 07:45:36;;;;;;;45.45;35.35;;;;;;;;;;5052367;28;20075;-68
2022/11/05 07:48:03;;;;;;;55.35;38.60;;;;;;;;;;5049979;28;20468;-67
2022/11/05 07:50:30;;;;;;;57.53;42.95;;;;;;;;;;5052090;28;20383;-70
2022/11/05 07:53:07;;;;;;;32.35;24.30;;;;;;;;;;5052212;28;20033;-73
2022/11/05 07:55:34;;;;;;;111.18;73.38;;;;;;;;;;5041308;28;20037;-74
2022/11/05 07:58:00;;;;;;;40.70;31.02;;;;;;;;;;5047182;28;20368;-72
2022/11/05 08:00:26;;;;;;;55.08;37.85;;;;;;;;;;5042028;28;20104;-68
2022/11/05 08:03:18;;;;;;;27.42;23.50;;;;;;;;;;5056347;28;20021;-72
2022/11/05 08:05:46;;;;;;;29.63;22.50;;;;;;;;;;5052413;28;20068;-75
2022/11/05 08:08:14;;;;;;;28.63;20.27;;;;;;;;;;5056151;28;20040;-67
2022/11/05 08:10:40;;;;;;;21.40;14.90;;;;;;;;;;5053770;28;20056;-74
2022/11/05 08:13:07;;;;;;;17.42;14.80;;;;;;;;;;5053715;28;20061;-68
2022/11/05 08:15:33;;;;;;;20.13;15.18;;;;;;;;;;5055490;28;20028;-72
2022/11/05 08:18:00;;;;;;;25.15;18.05;;;;;;;;;;5054763;28;20036;-71
2022/11/05 08:20:27;;;;;;;20.98;16.00;;;;;;;;;;5054656;28;20013;-71
2022/11/05 08:22:53;;;;;;;22.70;17.23;;;;;;;;;;5042464;28;20399;-73
2022/11/05 08:25:19;;;;;;;20.33;17.20;;;;;;;;;;5052881;28;20028;-70
2022/11/05 08:27:45;;;;;;;28.05;22.38;;;;;;;;;;5055604;28;20033;-69
2022/11/05 08:30:11;;;;;;;25.75;20.88;;;;;;;;;;5042515;28;20022;-70
2022/11/05 08:32:37;;;;;;;25.40;19.63;;;;;;;;;;5055309;28;20083;-75
2022/11/05 08:35:04;;;;;;;26.48;18.50;;;;;;;;;;5055754;28;20021;-73
2022/11/05 08:37:30;;;;;;;22.27;16.63;;;;;;;;;;5055383;28;20116;-68
2022/11/05 08:39:56;;;;;;;26.83;20.65;;;;;;;;;;5055573;28;20025;-75
2022/11/05 08:42:22;;;;;;;32.08;23.77;;;;;;;;;;5053214;28;20052;-68
2022/11/05 08:44:48;;;;;;;60.38;47.65;;;;;;;;;;5054159;28;20063;-75
2022/11/05 08:47:14;;;;;;;39.85;31.80;;;;;;;;;;5055025;28;20028;-72
2022/11/05 08:49:40;;;;;;;20.40;15.10;;;;;;;;;;5055392;28;20029;-79
2022/11/05 08:52:06;;;;;;;10.57;8.65;;;;;;;;;;5055217;28;20057;-67
2022/11/05 08:54:32;;;;;;;15.75;11.90;;;;;;;;;;5055185;28;20032;-67
2022/11/05 08:56:58;;;;;;;12.68;9.43;;;;;;;;;;5055100;28;20021;-74
2022/11/05 08:59:25;;;;;;;9.38;7.00;;;;;;;;;;5047382;28;20068;-73
2022/11/05 09:01:51;;;;;;;21.38;16.73;;;;;;;;;;5053212;28;20025;-73
2022/11/05 09:04:18;;;;;;;70.18;54.72;;;;;;;;;;5055031;28;20021;-72
2022/11/05 09:06:44;;;;;;;43.03;31.52;;;;;;;;;;5054718;28;20029;-75
2022/11/05 09:09:10;;;;;;;21.42;17.67;;;;;;;;;;5054858;28;20111;-76
2022/11/05 09:11:36;;;;;;;10.68;9.00;;;;;;;;;;5038899;28;20022;-75
2022/11/05 09:14:02;;;;;;;12.05;10.63;;;;;;;;;;5054072;28;20036;-67
2022/11/05 09:16:31;;;;;;;9.82;7.32;;;;;;;;;;5054577;28;20032;-67
2022/11/05 09:18:57;;;;;;;8.00;6.40;;;;;;;;;;5054967;28;20434;-74
2022/11/05 09:21:23;;;;;;;15.82;12.35;;;;;;;;;;5033616;28;20025;-75
2022/11/05 09:23:49;;;;;;;9.30;7.60;;;;;;;;;;5052124;28;20057;-67
2022/11/05 09:26:15;;;;;;;10.95;9.55;;;;;;;;;;5054470;28;20096;-73
2022/11/05 09:28:42;;;;;;;13.75;11.45;;;;;;;;;;5053958;28;20067;-73
2022/11/05 09:31:09;;;;;;;15.80;13.27;;;;;;;;;;5054575;28;20020;-76
2022/11/05 09:33:36;;;;;;;14.88;11.65;;;;;;;;;;5054387;28;20542;-72
2022/11/05 09:36:03;;;;;;;34.45;26.10;;;;;;;;;;5054439;28;20100;-69
2022/11/05 09:38:29;;;;;;;29.83;24.15;;;;;;;;;;5054448;28;20033;-72
2022/11/05 09:41:06;;;;;;;22.42;16.50;;;;;;;;;;5033942;28;20060;-74
2022/11/05 09:43:34;;;;;;;18.98;15.02;;;;;;;;;;5045486;28;20041;-69
2022/11/05 09:46:03;;;;;;;11.30;8.88;;;;;;;;;;5054125;28;20017;-75
2022/11/05 09:48:30;;;;;;;12.20;10.18;;;;;;;;;;5053979;28;20480;-71
2022/11/05 09:50:57;;;;;;;14.45;11.15;;;;;;;;;;5054224;28;20100;-71
2022/11/05 09:53:24;;;;;;;14.52;11.90;;;;;;;;;;5054188;28;20021;-77
2022/11/05 09:56:00;;;;;;;14.45;11.65;;;;;;;;;;5040956;28;20038;-69
2022/11/05 09:58:44;;;;;;;13.77;8.85;;;;;;;;;;5052006;28;20028;-73
2022/11/05 10:01:12;;;;;;;38.35;31.15;;;;;;;;;;5054197;28;20430;-77
2022/11/05 10:03:43;;;;;;;159.68;129.82;;;;;;;;;;5053704;28;20434;-79
2022/11/05 10:06:11;;;;;;;27.02;22.58;;;;;;;;;;5054231;28;20036;-77
2022/11/05 10:08:42;;;;;;;24.10;17.35;;;;;;;;;;5053511;28;20068;-75
2022/11/05 10:11:12;;;;;;;14.02;9.88;;;;;;;;;;5053939;28;20028;-75
2022/11/05 10:13:49;;;;;;;18.23;10.40;;;;;;;;;;5037296;28;20037;-69
2022/11/05 10:16:32;;;;;;;11.82;8.80;;;;;;;;;;5053797;28;20514;-70
2022/11/05 10:19:23;;;;;;;9.68;8.25;;;;;;;;;;5053344;28;20085;-71
2022/11/05 10:21:49;;;;;;;32.15;23.73;;;;;;;;;;5053384;28;20083;-70
2022/11/05 10:24:17;;;;;;;48.45;38.15;;;;;;;;;;5053167;28;20352;-74
2022/11/05 10:26:45;;;;;;;57.63;43.15;;;;;;;;;;5053013;28;20053;-68
2022/11/05 10:29:12;;;;;;;19.90;15.35;;;;;;;;;;5052735;28;20064;-76
2022/11/05 10:31:39;;;;;;;18.77;9.82;;;;;;;;;;5052774;28;20383;-80
2022/11/05 10:34:06;;;;;;;12.05;8.55;;;;;;;;;;5049451;28;20044;-74
2022/11/05 10:36:34;;;;;;;14.65;11.15;;;;;;;;;;5051804;28;20029;-70
2022/11/05 10:39:11;;;;;;;104.35;82.85;;;;;;;;;;5052667;28;20475;-74
2022/11/05 10:41:37;;;;;;;57.42;45.05;;;;;;;;;;5048061;28;20052;-75
2022/11/05 10:44:17;;;;;;;22.75;18.52;;;;;;;;;;5049426;28;20098;-74
2022/11/05 10:46:56;;;;;;;20.67;15.25;;;;;;;;;;5038903;28;20033;-71
2022/11/05 10:49:41;;;;;;;11.15;7.47;;;;;;;;;;5049367;28;20101;-76
2022/11/05 10:52:33;;;;;;;14.68;12.05;;;;;;;;;;5046996;28;20032;-75
2022/11/05 10:55:01;;;;;;;11.55;9.00;;;;;;;;;;5045676;28;20029;-75
2022/11/05 10:57:46;;;;;;;14.60;9.52;;;;;;;;;;5052151;28;20100;-76
2022/11/05 11:00:15;;;;;;;14.20;9.15;;;;;;;;;;5042549;28;20029;-76
2022/11/05 11:02:42;;;;;;;17.15;13.82;;;;;;;;;;5049992;28;20029;-75
2022/11/05 11:05:09;;;;;;;34.80;25.58;;;;;;;;;;5049854;28;20047;-76
2022/11/05 11:07:35;;;;;;;21.80;17.63;;;;;;;;;;5046006;28;20033;-73
2022/11/05 11:10:02;;;;;;;13.40;9.32;;;;;;;;;;5047347;28;20063;-74
2022/11/05 11:12:35;;;;;;;78.35;51.78;;;;;;;;;;5049779;28;20103;-73
2022/11/05 11:15:21;;;;;;;42.25;25.73;;;;;;;;;;5040163;28;20453;-74
2022/11/05 11:17:47;;;;;;;25.85;16.98;;;;;;;;;;5047663;28;20029;-71
2022/11/05 11:20:25;;;;;;;13.80;11.13;;;;;;;;;;5049471;28;20017;-73
2022/11/05 11:22:57;;;;;;;27.88;17.92;;;;;;;;;;5052230;28;20072;-73
2022/11/05 11:25:24;;;;;;;18.80;11.60;;;;;;;;;;5051973;28;20024;-73
2022/11/05 11:27:50;;;;;;;15.20;10.10;;;;;;;;;;5052281;28;20029;-74
2022/11/05 11:30:18;;;;;;;14.23;10.23;;;;;;;;;;5045036;28;20411;-73
2022/11/05 11:32:44;;;;;;;13.30;8.98;;;;;;;;;;5051964;28;20032;-73
2022/11/05 11:35:24;;;;;;;10.40;7.72;;;;;;;;;;5051314;28;20071;-73
2022/11/05 11:37:54;;;;;;;13.45;9.77;;;;;;;;;;5045147;28;20100;-72
2022/11/05 11:40:22;;;;;;;17.45;10.52;;;;;;;;;;5051705;28;20024;-74
2022/11/05 11:42:50;;;;;;;20.73;14.45;;;;;;;;;;5044925;28;20060;-72
2022/11/05 11:45:27;;;;;;;26.35;18.90;;;;;;;;;;5052462;28;20036;-72
2022/11/05 11:47:54;;;;;;;24.23;13.73;;;;;;;;;;5051860;28;20036;-71
2022/11/05 11:50:32;;;;;;;13.00;9.18;;;;;;;;;;5051487;28;20024;-70
2022/11/05 11:53:24;;;;;;;13.65;9.85;;;;;;;;;;5048701;28;20504;-71
2022/11/05 11:55:56;;;;;;;11.68;10.25;;;;;;;;;;5052237;28;20067;-72
2022/11/05 11:58:24;;;;;;;17.45;11.90;;;;;;;;;;5051944;28;20383;-72
2022/11/05 12:00:54;;;;;;;18.20;11.80;;;;;;;;;;5035750;28;20018;-73
2022/11/05 12:03:39;;;;;;;12.23;8.05;;;;;;;;;;5048375;28;20383;-74
2022/11/05 12:06:05;;;;;;;12.95;7.72;;;;;;;;;;5051441;28;20021;-73
2022/11/05 12:08:41;;;;;;;10.73;7.47;;;;;;;;;;5039990;28;20033;-73
2022/11/05 12:11:19;;;;;;;13.10;8.85;;;;;;;;;;5051780;28;20017;-72
2022/11/05 12:14:05;;;;;;;11.88;8.68;;;;;;;;;;5051915;28;20438;-71
2022/11/05 12:16:58;;;;;;;13.13;9.73;;;;;;;;;;5041281;28;20045;-74
2022/11/05 12:19:42;;;;;;;15.68;11.95;;;;;;;;;;5047948;28;20043;-72
2022/11/05 12:22:11;;;;;;;21.80;14.43;;;;;;;;;;5051834;28;20506;-72
2022/11/05 12:24:43;;;;;;;31.40;19.50;;;;;;;;;;5052036;28;20036;-73
2022/11/05 12:27:12;;;;;;;22.45;13.90;;;;;;;;;;5051754;28;20087;-72
2022/11/05 12:29:38;;;;;;;30.02;25.30;;;;;;;;;;5043346;28;20033;-73
2022/11/05 12:32:23;;;;;;;14.73;11.38;;;;;;;;;;5048550;28;20021;-72
2022/11/05 12:35:10;;;;;;;16.08;10.85;;;;;;;;;;5052067;28;20057;-72
2022/11/05 12:37:56;;;;;;;16.08;10.95;;;;;;;;;;5052045;28;20024;-73
2022/11/05 12:40:58;;;;;;;13.25;9.48;;;;;;;;;;5037729;28;20036;-73
2022/11/05 12:43:43;;;;;;;9.93;7.63;;;;;;;;;;4973757;28;20054;-73
2022/11/05 12:46:24;;;;;;;9.70;7.30;;;;;;;;;;4990587;28;20612;-72
2022/11/05 12:48:53;;;;;;;8.88;5.53;;;;;;;;;;4993812;28;20045;-73
2022/11/05 12:51:37;;;;;;;9.30;6.10;;;;;;;;;;4993807;28;20121;-73
2022/11/05 12:54:12;;;;;;;12.52;8.82;;;;;;;;;;4993985;28;20030;-72
2022/11/05 12:56:41;;;;;;;9.18;6.88;;;;;;;;;;4991749;28;20040;-73
2022/11/05 12:59:15;;;;;;;12.45;8.85;;;;;;;;;;4988863;28;20405;-74
2022/11/05 13:01:43;;;;;;;13.20;9.80;;;;;;;;;;4984539;28;20428;-73
2022/11/05 13:04:21;;;;;;;9.27;7.50;;;;;;;;;;4993168;28;20034;-72
2022/11/05 13:06:51;;;;;;;13.52;8.45;;;;;;;;;;4991962;28;20038;-72
2022/11/05 13:09:24;;;;;;;13.00;8.77;;;;;;;;;;4978143;28;20440;-72
2022/11/05 13:11:55;;;;;;;12.35;9.88;;;;;;;;;;4986811;28;20038;-72
2022/11/05 13:14:21;;;;;;;;;;;;;;;;;;4993232;28;20038;-72
2022/11/05 13:16:47;;;;;;;12.00;8.55;;;;;;;;;;5008546;28;19912;-71
2022/11/05 13:19:13;;;;;;;12.23;7.90;;;;;;;;;;5054194;28;20534;-72
2022/11/05 13:21:42;;;;;;;13.60;8.88;;;;;;;;;;5051965;28;20054;-73
2022/11/05 13:24:14;;;;;;;12.73;8.65;;;;;;;;;;5047328;28;20434;-73
2022/11/05 13:26:49;;;;;;;7.95;6.60;;;;;;;;;;5051832;28;20024;-74
2022/11/05 13:29:18;;;;;;;14.30;9.88;;;;;;;;;;5042377;28;20034;-75
2022/11/05 13:31:50;;;;;;;11.43;7.95;;;;;;;;;;5051764;28;20368;-72
2022/11/05 13:34:16;;;;;;;12.85;9.32;;;;;;;;;;5054334;28;20025;-72
2022/11/05 13:39:50;;;;;;;11.75;8.43;;;;;;;;;;5054654;28;20083;-72
2022/11/05 13:42:34;;;;;;;11.18;8.25;;;;;;;;;;5054114;28;20021;-72
2022/11/05 13:45:03;;;;;;;11.57;8.00;;;;;;;;;;5054039;28;20053;-72
2022/11/05 13:47:35;;;;;;;13.27;9.50;;;;;;;;;;5053983;28;20095;-73
2022/11/05 13:50:28;;;;;;;12.60;8.65;;;;;;;;;;5054319;28;20417;-72
2022/11/05 13:53:12;;;;;;;14.32;9.98;;;;;;;;;;5050251;28;20037;-78
2022/11/05 13:55:47;;;;;;;14.82;10.95;;;;;;;;;;5054268;28;20028;-72
2022/11/05 13:58:13;;;;;;;16.70;12.48;;;;;;;;;;5053312;28;20107;-75
2022/11/05 14:00:47;;;;;;;15.38;11.30;;;;;;;;;;5045403;28;20060;-74
2022/11/05 14:03:12;;;;;;;;;;;;;;;;;;5054522;28;20399;-72
2022/11/05 14:05:40;;;;;;;12.75;8.30;;;;;;;;;;5045069;28;19905;-71
2022/11/05 14:08:20;;;;;;;11.35;7.80;;;;;;;;;;5047865;28;20037;-74
2022/11/05 14:11:07;;;;;;;21.85;14.25;;;;;;;;;;5041355;28;20027;-74
2022/11/05 14:13:37;;;;;;;15.48;10.57;;;;;;;;;;5039838;28;20053;-72
2022/11/05 14:16:08;;;;;;;17.83;12.07;;;;;;;;;;5053655;28;20033;-75
2022/11/05 14:18:38;;;;;;;16.75;12.70;;;;;;;;;;5053609;28;20021;-74
2022/11/05 14:21:05;;;;;;;19.98;14.00;;;;;;;;;;5044919;28;20026;-73
2022/11/05 14:23:39;;;;;;;19.35;14.25;;;;;;;;;;5033599;28;20044;-75
2022/11/05 14:26:24;;;;;;;55.13;39.40;;;;;;;;;;5037418;28;20021;-74
2022/11/05 14:28:53;;;;;;;20.10;16.35;;;;;;;;;;5048264;28;20487;-73
2022/11/05 14:31:22;;;;;;;25.88;14.02;;;;;;;;;;5047411;28;20051;-74
2022/11/05 14:33:59;;;;;;;22.23;13.80;;;;;;;;;;5053595;28;20052;-75
2022/11/05 14:36:25;;;;;;;36.42;27.42;;;;;;;;;;5053143;28;20047;-73
2022/11/05 14:38:53;;;;;;;31.95;20.05;;;;;;;;;;5052445;28;20031;-74
2022/11/05 14:41:19;;;;;;;17.83;12.85;;;;;;;;;;5052813;28;20083;-74
2022/11/05 14:43:50;;;;;;;16.05;11.43;;;;;;;;;;5035836;28;20531;-75
2022/11/05 14:46:16;;;;;;;21.00;15.50;;;;;;;;;;5044137;28;20476;-73
2022/11/05 14:48:59;;;;;;;21.38;16.20;;;;;;;;;;5049269;28;20052;-73
2022/11/05 14:51:31;;;;;;;16.70;11.95;;;;;;;;;;5051111;28;20062;-74
2022/11/05 14:53:59;;;;;;;14.77;10.13;;;;;;;;;;5037438;28;20021;-74
2022/11/05 14:56:25;;;;;;;13.50;10.55;;;;;;;;;;5033064;28;20220;-75
2022/11/05 14:59:12;;;;;;;10.48;8.13;;;;;;;;;;5046880;28;20024;-73
2022/11/05 15:01:41;;;;;;;17.95;13.45;;;;;;;;;;5035256;28;20037;-74
2022/11/05 15:04:26;;;;;;;11.50;8.73;;;;;;;;;;5052656;28;20017;-74
2022/11/05 15:07:04;;;;;;;14.93;10.20;;;;;;;;;;5052535;28;20025;-75
2022/11/05 15:09:41;;;;;;;15.55;11.70;;;;;;;;;;5034367;28;20341;-74
2022/11/05 15:12:11;;;;;;;18.23;12.55;;;;;;;;;;5033575;28;20036;-75
2022/11/05 15:14:45;;;;;;;13.90;9.50;;;;;;;;;;5047321;28;20032;-74
2022/11/05 15:17:20;;;;;;;20.08;16.77;;;;;;;;;;5052612;28;20025;-75
2022/11/05 15:19:46;;;;;;;14.38;10.57;;;;;;;;;;5052639;28;20024;-74
2022/11/05 15:22:33;;;;;;;18.13;12.10;;;;;;;;;;5052656;28;20036;-73